sensor_id;sensor_type;location;lat;lon;timestamp;temperature;humidity
72320;SHT30;60269;52.502;16.732;2023-07-20T00:02:50;14.82;94.44
72320;SHT30;60269;52.502;16.732;2023-07-20T00:06:24;14.83;94.87
72320;SHT30;60269;52.502;16.732;2023-07-20T00:09:56;14.86;95.24
72320;SHT30;60269;52.502;16.732;2023-07-20T00:13:29;15.00;95.01
72320;SHT30;60269;52.502;16.732;2023-07-20T00:17:02;15.06;95.00
72320;SHT30;60269;52.502;16.732;2023-07-20T00:20:35;15.06;95.03
72320;SHT30;60269;52.502;16.732;2023-07-20T00:24:07;14.96;95.29
72320;SHT30;60269;52.502;16.732;2023-07-20T00:27:39;14.95;95.66
72320;SHT30;60269;52.502;16.732;2023-07-20T00:31:11;14.96;95.85
72320;SHT30;60269;52.502;16.732;2023-07-20T00:34:43;14.92;95.84
72320;SHT30;60269;52.502;16.732;2023-07-20T00:38:15;14.93;96.21
72320;SHT30;60269;52.502;16.732;2023-07-20T00:41:47;14.95;96.13
72320;SHT30;60269;52.502;16.732;2023-07-20T00:45:19;14.89;96.47
72320;SHT30;60269;52.502;16.732;2023-07-20T00:48:52;14.88;96.35
72320;SHT30;60269;52.502;16.732;2023-07-20T00:52:25;14.95;96.65
72320;SHT30;60269;52.502;16.732;2023-07-20T00:55:59;14.96;96.80
72320;SHT30;60269;52.502;16.732;2023-07-20T00:59:31;14.93;96.82
72320;SHT30;60269;52.502;16.732;2023-07-20T01:03:03;14.88;97.08
72320;SHT30;60269;52.502;16.732;2023-07-20T01:10:17;14.93;97.29
72320;SHT30;60269;52.502;16.732;2023-07-20T01:13:51;14.90;97.39
72320;SHT30;60269;52.502;16.732;2023-07-20T01:17:26;14.88;97.57
72320;SHT30;60269;52.502;16.732;2023-07-20T01:21:09;14.93;97.59
72320;SHT30;60269;52.502;16.732;2023-07-20T01:24:56;14.93;97.90
72320;SHT30;60269;52.502;16.732;2023-07-20T01:32:30;14.89;98.07
72320;SHT30;60269;52.502;16.732;2023-07-20T01:36:03;14.86;98.14
72320;SHT30;60269;52.502;16.732;2023-07-20T01:39:37;14.86;98.16
72320;SHT30;60269;52.502;16.732;2023-07-20T01:43:09;14.75;98.30
72320;SHT30;60269;52.502;16.732;2023-07-20T01:46:42;14.78;98.35
72320;SHT30;60269;52.502;16.732;2023-07-20T01:50:14;14.78;98.35
72320;SHT30;60269;52.502;16.732;2023-07-20T01:53:46;14.73;98.45
72320;SHT30;60269;52.502;16.732;2023-07-20T01:57:18;14.68;98.52
72320;SHT30;60269;52.502;16.732;2023-07-20T02:00:50;14.73;98.72
72320;SHT30;60269;52.502;16.732;2023-07-20T02:04:22;14.76;98.73
72320;SHT30;60269;52.502;16.732;2023-07-20T02:07:54;14.73;98.68
72320;SHT30;60269;52.502;16.732;2023-07-20T02:11:26;14.69;98.71
72320;SHT30;60269;52.502;16.732;2023-07-20T02:14:59;14.69;98.76
72320;SHT30;60269;52.502;16.732;2023-07-20T02:18:31;14.72;98.68
72320;SHT30;60269;52.502;16.732;2023-07-20T02:22:03;14.75;98.76
72320;SHT30;60269;52.502;16.732;2023-07-20T02:25:35;14.78;98.79
72320;SHT30;60269;52.502;16.732;2023-07-20T02:29:07;14.78;98.69
72320;SHT30;60269;52.502;16.732;2023-07-20T02:32:40;14.80;98.65
72320;SHT30;60269;52.502;16.732;2023-07-20T02:36:12;14.80;98.59
72320;SHT30;60269;52.502;16.732;2023-07-20T02:39:44;14.82;98.58
72320;SHT30;60269;52.502;16.732;2023-07-20T02:43:16;14.75;98.62
72320;SHT30;60269;52.502;16.732;2023-07-20T02:46:48;14.73;98.64
72320;SHT30;60269;52.502;16.732;2023-07-20T02:50:22;14.72;98.81
72320;SHT30;60269;52.502;16.732;2023-07-20T02:53:54;14.73;98.93
72320;SHT30;60269;52.502;16.732;2023-07-20T02:57:26;14.79;98.96
72320;SHT30;60269;52.502;16.732;2023-07-20T03:00:58;14.76;98.85
72320;SHT30;60269;52.502;16.732;2023-07-20T03:04:30;14.83;98.81
72320;SHT30;60269;52.502;16.732;2023-07-20T03:08:02;14.83;98.62
72320;SHT30;60269;52.502;16.732;2023-07-20T03:11:35;14.79;98.70
72320;SHT30;60269;52.502;16.732;2023-07-20T03:15:07;14.83;98.76
72320;SHT30;60269;52.502;16.732;2023-07-20T03:18:39;14.85;98.76
72320;SHT30;60269;52.502;16.732;2023-07-20T03:22:11;14.88;98.66
72320;SHT30;60269;52.502;16.732;2023-07-20T03:25:44;14.88;98.70
72320;SHT30;60269;52.502;16.732;2023-07-20T03:29:16;14.86;98.67
72320;SHT30;60269;52.502;16.732;2023-07-20T03:32:50;14.93;98.63
72320;SHT30;60269;52.502;16.732;2023-07-20T03:36:22;14.95;98.54
72320;SHT30;60269;52.502;16.732;2023-07-20T03:39:55;14.98;98.41
72320;SHT30;60269;52.502;16.732;2023-07-20T03:43:28;14.99;98.33
72320;SHT30;60269;52.502;16.732;2023-07-20T03:47:00;14.98;98.18
72320;SHT30;60269;52.502;16.732;2023-07-20T03:50:32;15.02;98.21
72320;SHT30;60269;52.502;16.732;2023-07-20T03:54:05;14.99;98.11
72320;SHT30;60269;52.502;16.732;2023-07-20T03:57:37;15.00;98.11
72320;SHT30;60269;52.502;16.732;2023-07-20T04:01:09;15.00;98.14
72320;SHT30;60269;52.502;16.732;2023-07-20T04:04:41;14.96;98.21
72320;SHT30;60269;52.502;16.732;2023-07-20T04:08:13;15.00;98.38
72320;SHT30;60269;52.502;16.732;2023-07-20T04:11:45;14.95;98.43
72320;SHT30;60269;52.502;16.732;2023-07-20T04:15:18;14.90;98.39
72320;SHT30;60269;52.502;16.732;2023-07-20T04:18:50;14.83;98.49
72320;SHT30;60269;52.502;16.732;2023-07-20T04:22:22;14.79;98.57
72320;SHT30;60269;52.502;16.732;2023-07-20T04:25:54;14.75;98.60
72320;SHT30;60269;52.502;16.732;2023-07-20T04:29:26;14.78;98.77
72320;SHT30;60269;52.502;16.732;2023-07-20T04:32:58;14.90;98.47
72320;SHT30;60269;52.502;16.732;2023-07-20T04:36:31;15.14;98.22
72320;SHT30;60269;52.502;16.732;2023-07-20T04:40:03;15.37;97.65
72320;SHT30;60269;52.502;16.732;2023-07-20T04:43:36;15.34;97.41
72320;SHT30;60269;52.502;16.732;2023-07-20T04:47:08;15.27;97.59
72320;SHT30;60269;52.502;16.732;2023-07-20T04:50:41;15.22;97.59
72320;SHT30;60269;52.502;16.732;2023-07-20T04:54:14;15.28;97.62
72320;SHT30;60269;52.502;16.732;2023-07-20T04:57:47;15.50;97.13
72320;SHT30;60269;52.502;16.732;2023-07-20T05:01:19;15.59;96.12
72320;SHT30;60269;52.502;16.732;2023-07-20T05:04:51;15.96;94.86
72320;SHT30;60269;52.502;16.732;2023-07-20T05:08:23;16.23;92.95
72320;SHT30;60269;52.502;16.732;2023-07-20T05:11:55;16.74;91.19
72320;SHT30;60269;52.502;16.732;2023-07-20T05:15:27;16.95;88.05
72320;SHT30;60269;52.502;16.732;2023-07-20T05:18:59;17.79;86.00
72320;SHT30;60269;52.502;16.732;2023-07-20T05:22:32;18.41;82.67
72320;SHT30;60269;52.502;16.732;2023-07-20T05:26:05;19.41;79.64
72320;SHT30;60269;52.502;16.732;2023-07-20T05:29:37;18.86;76.11
72320;SHT30;60269;52.502;16.732;2023-07-20T05:33:12;18.67;78.35
72320;SHT30;60269;52.502;16.732;2023-07-20T05:36:44;18.63;76.66
72320;SHT30;60269;52.502;16.732;2023-07-20T05:40:37;18.27;77.68
72320;SHT30;60269;52.502;16.732;2023-07-20T05:44:09;17.86;79.31
72320;SHT30;60269;52.502;16.732;2023-07-20T05:47:41;18.14;78.53
72320;SHT30;60269;52.502;16.732;2023-07-20T05:51:13;19.43;75.21
72320;SHT30;60269;52.502;16.732;2023-07-20T05:54:46;20.00;71.51
72320;SHT30;60269;52.502;16.732;2023-07-20T05:58:18;20.44;68.53
72320;SHT30;60269;52.502;16.732;2023-07-20T06:01:50;20.75;68.53
72320;SHT30;60269;52.502;16.732;2023-07-20T06:05:23;21.28;67.90
72320;SHT30;60269;52.502;16.732;2023-07-20T06:09:00;20.84;65.56
72320;SHT30;60269;52.502;16.732;2023-07-20T06:12:35;19.96;68.21
72320;SHT30;60269;52.502;16.732;2023-07-20T06:16:07;20.72;67.45
72320;SHT30;60269;52.502;16.732;2023-07-20T06:19:39;21.42;64.48
72320;SHT30;60269;52.502;16.732;2023-07-20T06:23:12;22.24;60.13
72320;SHT30;60269;52.502;16.732;2023-07-20T06:26:44;22.91;59.02
72320;SHT30;60269;52.502;16.732;2023-07-20T06:30:16;23.14;57.40
72320;SHT30;60269;52.502;16.732;2023-07-20T06:33:48;22.76;58.69
72320;SHT30;60269;52.502;16.732;2023-07-20T06:37:23;21.93;61.70
72320;SHT30;60269;52.502;16.732;2023-07-20T06:40:56;21.35;62.14
72320;SHT30;60269;52.502;16.732;2023-07-20T06:44:28;20.82;63.27
72320;SHT30;60269;52.502;16.732;2023-07-20T06:48:00;20.58;64.58
72320;SHT30;60269;52.502;16.732;2023-07-20T06:51:32;20.75;64.17
72320;SHT30;60269;52.502;16.732;2023-07-20T06:55:04;21.16;62.62
72320;SHT30;60269;52.502;16.732;2023-07-20T06:58:37;20.87;61.32
72320;SHT30;60269;52.502;16.732;2023-07-20T07:02:09;20.78;62.03
72320;SHT30;60269;52.502;16.732;2023-07-20T07:05:44;20.79;61.78
72320;SHT30;60269;52.502;16.732;2023-07-20T07:09:22;20.89;62.46
72320;SHT30;60269;52.502;16.732;2023-07-20T07:12:54;20.68;62.61
72320;SHT30;60269;52.502;16.732;2023-07-20T07:16:26;20.65;63.19
72320;SHT30;60269;52.502;16.732;2023-07-20T07:19:59;20.39;63.18
72320;SHT30;60269;52.502;16.732;2023-07-20T07:23:31;20.67;62.14
72320;SHT30;60269;52.502;16.732;2023-07-20T07:27:04;21.64;58.98
72320;SHT30;60269;52.502;16.732;2023-07-20T07:30:36;22.09;59.02
72320;SHT30;60269;52.502;16.732;2023-07-20T07:34:10;22.57;58.18
72320;SHT30;60269;52.502;16.732;2023-07-20T07:37:42;21.42;59.40
72320;SHT30;60269;52.502;16.732;2023-07-20T07:41:28;21.74;58.76
72320;SHT30;60269;52.502;16.732;2023-07-20T07:45:00;21.33;60.13
72320;SHT30;60269;52.502;16.732;2023-07-20T07:48:35;21.77;58.61
72320;SHT30;60269;52.502;16.732;2023-07-20T07:52:07;22.05;57.98
72320;SHT30;60269;52.502;16.732;2023-07-20T07:55:39;21.08;60.86
72320;SHT30;60269;52.502;16.732;2023-07-20T07:59:11;21.30;62.07
72320;SHT30;60269;52.502;16.732;2023-07-20T08:02:44;20.75;63.33
72320;SHT30;60269;52.502;16.732;2023-07-20T08:06:16;20.78;62.79
72320;SHT30;60269;52.502;16.732;2023-07-20T08:09:48;20.31;64.37
72320;SHT30;60269;52.502;16.732;2023-07-20T08:13:21;20.29;64.56
72320;SHT30;60269;52.502;16.732;2023-07-20T08:16:53;20.64;64.00
72320;SHT30;60269;52.502;16.732;2023-07-20T08:20:27;21.03;61.06
72320;SHT30;60269;52.502;16.732;2023-07-20T08:24:00;20.61;62.86
72320;SHT30;60269;52.502;16.732;2023-07-20T08:27:32;20.22;64.63
72320;SHT30;60269;52.502;16.732;2023-07-20T08:31:05;19.96;64.67
72320;SHT30;60269;52.502;16.732;2023-07-20T08:34:38;19.39;66.36
72320;SHT30;60269;52.502;16.732;2023-07-20T08:38:11;17.93;78.14
72320;SHT30;60269;52.502;16.732;2023-07-20T08:41:46;17.29;81.05
72320;SHT30;60269;52.502;16.732;2023-07-20T08:45:18;17.16;78.52
72320;SHT30;60269;52.502;16.732;2023-07-20T08:48:50;16.91;81.45
72320;SHT30;60269;52.502;16.732;2023-07-20T08:52:24;16.43;86.50
72320;SHT30;60269;52.502;16.732;2023-07-20T08:55:56;15.94;89.91
72320;SHT30;60269;52.502;16.732;2023-07-20T08:59:28;15.50;95.78
72320;SHT30;60269;52.502;16.732;2023-07-20T09:03:02;14.37;94.93
72320;SHT30;60269;52.502;16.732;2023-07-20T09:06:36;13.63;96.30
72320;SHT30;60269;52.502;16.732;2023-07-20T09:10:08;13.82;98.23
72320;SHT30;60269;52.502;16.732;2023-07-20T09:13:40;14.07;97.33
72320;SHT30;60269;52.502;16.732;2023-07-20T09:17:13;15.00;98.00
72320;SHT30;60269;52.502;16.732;2023-07-20T09:20:48;16.06;96.39
72320;SHT30;60269;52.502;16.732;2023-07-20T09:24:20;16.84;95.67
72320;SHT30;60269;52.502;16.732;2023-07-20T09:27:54;17.38;93.44
72320;SHT30;60269;52.502;16.732;2023-07-20T09:31:26;17.71;91.06
72320;SHT30;60269;52.502;16.732;2023-07-20T09:35:18;17.56;90.97
72320;SHT30;60269;52.502;16.732;2023-07-20T09:38:53;17.69;87.52
72320;SHT30;60269;52.502;16.732;2023-07-20T09:42:28;18.37;84.54
72320;SHT30;60269;52.502;16.732;2023-07-20T09:46:03;18.92;83.24
72320;SHT30;60269;52.502;16.732;2023-07-20T09:49:41;19.57;84.79
72320;SHT30;60269;52.502;16.732;2023-07-20T09:53:18;19.99;77.49
72320;SHT30;60269;52.502;16.732;2023-07-20T09:56:51;20.52;78.05
72320;SHT30;60269;52.502;16.732;2023-07-20T10:00:24;20.22;72.79
72320;SHT30;60269;52.502;16.732;2023-07-20T10:04:03;20.43;72.62
72320;SHT30;60269;52.502;16.732;2023-07-20T10:07:49;21.06;70.49
72320;SHT30;60269;52.502;16.732;2023-07-20T10:11:26;21.56;67.73
72320;SHT30;60269;52.502;16.732;2023-07-20T10:22:27;22.22;62.23
72320;SHT30;60269;52.502;16.732;2023-07-20T10:26:01;22.52;61.79
72320;SHT30;60269;52.502;16.732;2023-07-20T10:29:34;22.82;62.13
72320;SHT30;60269;52.502;16.732;2023-07-20T10:33:07;22.53;60.60
72320;SHT30;60269;52.502;16.732;2023-07-20T10:36:45;22.99;60.66
72320;SHT30;60269;52.502;16.732;2023-07-20T10:44:20;22.48;61.74
72320;SHT30;60269;52.502;16.732;2023-07-20T10:47:55;23.47;56.94
72320;SHT30;60269;52.502;16.732;2023-07-20T10:51:27;23.25;55.11
72320;SHT30;60269;52.502;16.732;2023-07-20T10:55:10;23.04;55.77
72320;SHT30;60269;52.502;16.732;2023-07-20T10:58:43;23.21;56.75
72320;SHT30;60269;52.502;16.732;2023-07-20T11:02:18;23.80;54.13
72320;SHT30;60269;52.502;16.732;2023-07-20T11:05:52;23.83;52.32
72320;SHT30;60269;52.502;16.732;2023-07-20T11:09:24;24.67;50.86
72320;SHT30;60269;52.502;16.732;2023-07-20T11:16:50;23.83;49.77
72320;SHT30;60269;52.502;16.732;2023-07-20T11:20:25;24.54;47.68
72320;SHT30;60269;52.502;16.732;2023-07-20T11:23:57;24.53;48.58
72320;SHT30;60269;52.502;16.732;2023-07-20T11:27:29;25.18;46.91
72320;SHT30;60269;52.502;16.732;2023-07-20T11:31:00;24.12;49.10
72320;SHT30;60269;52.502;16.732;2023-07-20T11:34:34;24.84;47.85
72320;SHT30;60269;52.502;16.732;2023-07-20T11:38:06;24.38;48.78
72320;SHT30;60269;52.502;16.732;2023-07-20T11:41:44;24.41;48.97
72320;SHT30;60269;52.502;16.732;2023-07-20T11:45:16;24.36;47.73
72320;SHT30;60269;52.502;16.732;2023-07-20T11:48:56;25.26;45.36
72320;SHT30;60269;52.502;16.732;2023-07-20T11:52:28;26.04;45.92
72320;SHT30;60269;52.502;16.732;2023-07-20T11:56:00;25.94;46.69
72320;SHT30;60269;52.502;16.732;2023-07-20T11:59:33;25.73;46.59
72320;SHT30;60269;52.502;16.732;2023-07-20T12:03:06;25.29;45.48
72320;SHT30;60269;52.502;16.732;2023-07-20T12:06:41;26.36;43.20
72320;SHT30;60269;52.502;16.732;2023-07-20T12:10:14;25.92;41.42
72320;SHT30;60269;52.502;16.732;2023-07-20T12:13:46;25.32;42.37
72320;SHT30;60269;52.502;16.732;2023-07-20T12:17:19;25.94;41.33
72320;SHT30;60269;52.502;16.732;2023-07-20T12:20:58;25.61;41.13
72320;SHT30;60269;52.502;16.732;2023-07-20T12:24:31;24.86;42.81
72320;SHT30;60269;52.502;16.732;2023-07-20T12:28:12;24.67;43.69
72320;SHT30;60269;52.502;16.732;2023-07-20T12:31:44;24.54;44.34
72320;SHT30;60269;52.502;16.732;2023-07-20T12:35:17;24.12;46.88
72320;SHT30;60269;52.502;16.732;2023-07-20T12:38:49;23.37;47.55
72320;SHT30;60269;52.502;16.732;2023-07-20T12:42:22;23.04;48.77
72320;SHT30;60269;52.502;16.732;2023-07-20T12:45:55;22.79;49.30
72320;SHT30;60269;52.502;16.732;2023-07-20T12:49:28;22.49;50.02
72320;SHT30;60269;52.502;16.732;2023-07-20T12:53:00;22.48;49.98
72320;SHT30;60269;52.502;16.732;2023-07-20T12:56:33;22.66;49.94
72320;SHT30;60269;52.502;16.732;2023-07-20T13:00:10;23.41;48.43
72320;SHT30;60269;52.502;16.732;2023-07-20T13:03:43;24.07;47.50
72320;SHT30;60269;52.502;16.732;2023-07-20T13:07:29;26.04;44.47
72320;SHT30;60269;52.502;16.732;2023-07-20T13:11:05;27.23;41.79
72320;SHT30;60269;52.502;16.732;2023-07-20T13:14:37;27.73;41.48
72320;SHT30;60269;52.502;16.732;2023-07-20T13:18:09;28.43;39.89
72320;SHT30;60269;52.502;16.732;2023-07-20T13:21:41;27.27;41.21
72320;SHT30;60269;52.502;16.732;2023-07-20T13:25:13;26.17;42.80
72320;SHT30;60269;52.502;16.732;2023-07-20T13:28:45;25.26;45.87
72320;SHT30;60269;52.502;16.732;2023-07-20T13:32:19;25.59;45.23
72320;SHT30;60269;52.502;16.732;2023-07-20T13:35:52;25.20;46.42
72320;SHT30;60269;52.502;16.732;2023-07-20T13:39:24;25.09;46.78
72320;SHT30;60269;52.502;16.732;2023-07-20T13:42:58;25.01;46.85
72320;SHT30;60269;52.502;16.732;2023-07-20T13:46:30;25.29;47.07
72320;SHT30;60269;52.502;16.732;2023-07-20T13:50:06;25.40;46.62
72320;SHT30;60269;52.502;16.732;2023-07-20T13:53:38;24.94;47.61
72320;SHT30;60269;52.502;16.732;2023-07-20T13:57:13;25.03;47.50
72320;SHT30;60269;52.502;16.732;2023-07-20T14:00:46;24.27;49.48
72320;SHT30;60269;52.502;16.732;2023-07-20T14:04:18;23.27;52.48
72320;SHT30;60269;52.502;16.732;2023-07-20T14:07:51;22.52;55.56
72320;SHT30;60269;52.502;16.732;2023-07-20T14:11:23;22.43;60.11
72320;SHT30;60269;52.502;16.732;2023-07-20T14:14:58;22.42;57.40
72320;SHT30;60269;52.502;16.732;2023-07-20T14:18:30;22.45;55.99
72320;SHT30;60269;52.502;16.732;2023-07-20T14:22:04;23.04;54.80
72320;SHT30;60269;52.502;16.732;2023-07-20T14:25:36;22.74;52.81
72320;SHT30;60269;52.502;16.732;2023-07-20T14:29:09;24.02;48.24
72320;SHT30;60269;52.502;16.732;2023-07-20T14:32:41;23.17;49.90
72320;SHT30;60269;52.502;16.732;2023-07-20T14:36:13;22.36;52.35
72320;SHT30;60269;52.502;16.732;2023-07-20T14:39:45;21.85;52.99
72320;SHT30;60269;52.502;16.732;2023-07-20T14:43:20;22.64;51.82
72320;SHT30;60269;52.502;16.732;2023-07-20T14:46:53;22.39;52.31
72320;SHT30;60269;52.502;16.732;2023-07-20T14:50:43;22.43;51.42
72320;SHT30;60269;52.502;16.732;2023-07-20T14:54:19;22.73;50.56
72320;SHT30;60269;52.502;16.732;2023-07-20T14:57:51;24.06;47.72
72320;SHT30;60269;52.502;16.732;2023-07-20T15:01:23;24.58;46.65
72320;SHT30;60269;52.502;16.732;2023-07-20T15:04:56;23.78;48.03
72320;SHT30;60269;52.502;16.732;2023-07-20T15:08:28;22.89;51.33
72320;SHT30;60269;52.502;16.732;2023-07-20T15:12:00;23.06;51.06
72320;SHT30;60269;52.502;16.732;2023-07-20T15:15:32;22.77;52.43
72320;SHT30;60269;52.502;16.732;2023-07-20T15:19:05;23.37;51.26
72320;SHT30;60269;52.502;16.732;2023-07-20T15:22:37;23.08;52.76
72320;SHT30;60269;52.502;16.732;2023-07-20T15:26:12;22.79;52.72
72320;SHT30;60269;52.502;16.732;2023-07-20T15:29:44;22.69;53.66
72320;SHT30;60269;52.502;16.732;2023-07-20T15:33:17;23.04;52.89
72320;SHT30;60269;52.502;16.732;2023-07-20T15:36:49;22.24;54.74
72320;SHT30;60269;52.502;16.732;2023-07-20T15:40:21;22.14;54.96
72320;SHT30;60269;52.502;16.732;2023-07-20T15:43:53;21.93;55.45
72320;SHT30;60269;52.502;16.732;2023-07-20T15:47:25;21.91;55.62
72320;SHT30;60269;52.502;16.732;2023-07-20T15:50:59;21.90;56.89
72320;SHT30;60269;52.502;16.732;2023-07-20T15:54:33;21.81;57.64
72320;SHT30;60269;52.502;16.732;2023-07-20T15:58:06;20.96;61.47
72320;SHT30;60269;52.502;16.732;2023-07-20T16:01:38;20.79;61.50
72320;SHT30;60269;52.502;16.732;2023-07-20T16:05:10;20.91;59.54
72320;SHT30;60269;52.502;16.732;2023-07-20T16:08:46;21.28;58.77
72320;SHT30;60269;52.502;16.732;2023-07-20T16:12:18;21.39;58.12
72320;SHT30;60269;52.502;16.732;2023-07-20T16:15:57;21.63;56.83
72320;SHT30;60269;52.502;16.732;2023-07-20T16:19:29;23.96;50.79
72320;SHT30;60269;52.502;16.732;2023-07-20T16:23:01;23.14;52.64
72320;SHT30;60269;52.502;16.732;2023-07-20T16:26:38;22.18;52.95
72320;SHT30;60269;52.502;16.732;2023-07-20T16:30:15;21.37;53.72
72320;SHT30;60269;52.502;16.732;2023-07-20T16:33:47;22.35;53.78
72320;SHT30;60269;52.502;16.732;2023-07-20T16:37:20;23.79;51.19
72320;SHT30;60269;52.502;16.732;2023-07-20T16:40:57;24.16;50.31
72320;SHT30;60269;52.502;16.732;2023-07-20T16:44:30;23.41;52.12
72320;SHT30;60269;52.502;16.732;2023-07-20T16:48:01;24.96;47.90
72320;SHT30;60269;52.502;16.732;2023-07-20T16:51:34;24.96;48.85
72320;SHT30;60269;52.502;16.732;2023-07-20T16:55:07;24.81;45.49
72320;SHT30;60269;52.502;16.732;2023-07-20T16:58:39;23.62;47.87
72320;SHT30;60269;52.502;16.732;2023-07-20T17:02:12;24.00;46.23
72320;SHT30;60269;52.502;16.732;2023-07-20T17:05:44;24.34;44.47
72320;SHT30;60269;52.502;16.732;2023-07-20T17:09:17;23.49;44.99
72320;SHT30;60269;52.502;16.732;2023-07-20T17:12:49;23.54;44.97
72320;SHT30;60269;52.502;16.732;2023-07-20T17:16:21;24.23;42.79
72320;SHT30;60269;52.502;16.732;2023-07-20T17:19:53;23.85;42.53
72320;SHT30;60269;52.502;16.732;2023-07-20T17:23:28;24.03;42.14
72320;SHT30;60269;52.502;16.732;2023-07-20T17:27:04;23.79;41.82
72320;SHT30;60269;52.502;16.732;2023-07-20T17:30:40;23.38;42.78
72320;SHT30;60269;52.502;16.732;2023-07-20T17:34:12;23.08;42.18
72320;SHT30;60269;52.502;16.732;2023-07-20T17:37:44;22.74;42.27
72320;SHT30;60269;52.502;16.732;2023-07-20T17:41:20;22.69;42.86
72320;SHT30;60269;52.502;16.732;2023-07-20T17:44:55;22.74;43.51
72320;SHT30;60269;52.502;16.732;2023-07-20T17:48:28;22.91;43.69
72320;SHT30;60269;52.502;16.732;2023-07-20T17:52:00;22.59;43.93
72320;SHT30;60269;52.502;16.732;2023-07-20T17:55:32;22.41;44.58
72320;SHT30;60269;52.502;16.732;2023-07-20T17:59:04;22.63;44.74
72320;SHT30;60269;52.502;16.732;2023-07-20T18:02:37;22.21;45.46
72320;SHT30;60269;52.502;16.732;2023-07-20T18:06:11;21.94;46.14
72320;SHT30;60269;52.502;16.732;2023-07-20T18:09:43;21.67;47.33
72320;SHT30;60269;52.502;16.732;2023-07-20T18:13:15;21.02;49.56
72320;SHT30;60269;52.502;16.732;2023-07-20T18:16:47;19.94;53.23
72320;SHT30;60269;52.502;16.732;2023-07-20T18:20:19;19.44;54.88
72320;SHT30;60269;52.502;16.732;2023-07-20T18:23:51;19.11;55.92
72320;SHT30;60269;52.502;16.732;2023-07-20T18:27:25;18.93;56.59
72320;SHT30;60269;52.502;16.732;2023-07-20T18:30:57;18.72;57.24
72320;SHT30;60269;52.502;16.732;2023-07-20T18:34:33;18.49;58.06
72320;SHT30;60269;52.502;16.732;2023-07-20T18:38:08;18.29;58.83
72320;SHT30;60269;52.502;16.732;2023-07-20T18:41:41;17.98;60.25
72320;SHT30;60269;52.502;16.732;2023-07-20T18:45:13;17.71;61.29
72320;SHT30;60269;52.502;16.732;2023-07-20T18:48:45;17.47;62.30
72320;SHT30;60269;52.502;16.732;2023-07-20T18:52:17;17.40;62.62
72320;SHT30;60269;52.502;16.732;2023-07-20T18:55:50;17.36;63.40
72320;SHT30;60269;52.502;16.732;2023-07-20T18:59:23;17.29;64.41
72320;SHT30;60269;52.502;16.732;2023-07-20T19:02:55;17.22;65.70
72320;SHT30;60269;52.502;16.732;2023-07-20T19:06:30;17.02;67.10
72320;SHT30;60269;52.502;16.732;2023-07-20T19:10:02;16.75;68.43
72320;SHT30;60269;52.502;16.732;2023-07-20T19:13:35;16.60;69.03
72320;SHT30;60269;52.502;16.732;2023-07-20T19:17:08;16.47;69.80
72320;SHT30;60269;52.502;16.732;2023-07-20T19:20:40;16.33;70.46
72320;SHT30;60269;52.502;16.732;2023-07-20T19:24:12;16.13;71.52
72320;SHT30;60269;52.502;16.732;2023-07-20T19:27:44;15.92;72.30
72320;SHT30;60269;52.502;16.732;2023-07-20T19:31:17;15.85;72.39
72320;SHT30;60269;52.502;16.732;2023-07-20T19:34:48;15.79;72.68
72320;SHT30;60269;52.502;16.732;2023-07-20T19:38:26;15.65;73.53
72320;SHT30;60269;52.502;16.732;2023-07-20T19:41:59;15.64;73.01
72320;SHT30;60269;52.502;16.732;2023-07-20T19:45:31;15.57;72.86
72320;SHT30;60269;52.502;16.732;2023-07-20T19:49:03;15.54;71.91
72320;SHT30;60269;52.502;16.732;2023-07-20T19:52:36;15.59;71.12
72320;SHT30;60269;52.502;16.732;2023-07-20T19:56:30;15.75;70.09
72320;SHT30;60269;52.502;16.732;2023-07-20T20:00:08;15.84;69.70
72320;SHT30;60269;52.502;16.732;2023-07-20T20:03:43;15.72;69.92
72320;SHT30;60269;52.502;16.732;2023-07-20T20:07:16;15.57;70.36
72320;SHT30;60269;52.502;16.732;2023-07-20T20:10:48;15.51;70.94
72320;SHT30;60269;52.502;16.732;2023-07-20T20:14:23;15.38;71.42
72320;SHT30;60269;52.502;16.732;2023-07-20T20:17:58;15.28;71.68
72320;SHT30;60269;52.502;16.732;2023-07-20T20:21:32;15.26;71.82
72320;SHT30;60269;52.502;16.732;2023-07-20T20:25:07;15.19;71.72
72320;SHT30;60269;52.502;16.732;2023-07-20T20:28:39;15.03;72.36
72320;SHT30;60269;52.502;16.732;2023-07-20T20:32:11;14.90;72.83
72320;SHT30;60269;52.502;16.732;2023-07-20T20:35:46;14.75;73.21
72320;SHT30;60269;52.502;16.732;2023-07-20T20:39:25;14.69;73.33
72320;SHT30;60269;52.502;16.732;2023-07-20T20:42:58;14.68;73.04
72320;SHT30;60269;52.502;16.732;2023-07-20T20:46:30;14.49;73.79
72320;SHT30;60269;52.502;16.732;2023-07-20T20:50:02;14.34;73.99
72320;SHT30;60269;52.502;16.732;2023-07-20T20:53:34;14.38;73.60
72320;SHT30;60269;52.502;16.732;2023-07-20T20:57:06;14.27;73.56
72320;SHT30;60269;52.502;16.732;2023-07-20T21:00:38;14.11;74.75
72320;SHT30;60269;52.502;16.732;2023-07-20T21:04:13;13.96;76.24
72320;SHT30;60269;52.502;16.732;2023-07-20T21:07:46;13.66;77.81
72320;SHT30;60269;52.502;16.732;2023-07-20T21:11:18;13.56;78.12
72320;SHT30;60269;52.502;16.732;2023-07-20T21:14:50;13.42;78.35
72320;SHT30;60269;52.502;16.732;2023-07-20T21:18:22;13.26;78.88
72320;SHT30;60269;52.502;16.732;2023-07-20T21:21:54;13.12;79.36
72320;SHT30;60269;52.502;16.732;2023-07-20T21:25:26;13.01;80.06
72320;SHT30;60269;52.502;16.732;2023-07-20T21:28:58;12.84;80.63
72320;SHT30;60269;52.502;16.732;2023-07-20T21:32:30;12.72;81.19
72320;SHT30;60269;52.502;16.732;2023-07-20T21:36:02;12.61;81.55
72320;SHT30;60269;52.502;16.732;2023-07-20T21:39:37;12.45;82.22
72320;SHT30;60269;52.502;16.732;2023-07-20T21:43:09;12.40;82.51
72320;SHT30;60269;52.502;16.732;2023-07-20T21:46:42;12.40;82.60
72320;SHT30;60269;52.502;16.732;2023-07-20T21:50:14;12.47;82.10
72320;SHT30;60269;52.502;16.732;2023-07-20T21:53:47;12.70;80.66
72320;SHT30;60269;52.502;16.732;2023-07-20T21:57:19;12.86;79.85
72320;SHT30;60269;52.502;16.732;2023-07-20T22:00:51;12.90;79.80
72320;SHT30;60269;52.502;16.732;2023-07-20T22:04:25;12.87;80.26
72320;SHT30;60269;52.502;16.732;2023-07-20T22:07:57;12.90;80.33
72320;SHT30;60269;52.502;16.732;2023-07-20T22:11:31;12.87;80.55
72320;SHT30;60269;52.502;16.732;2023-07-20T22:15:06;12.91;80.87
72320;SHT30;60269;52.502;16.732;2023-07-20T22:18:40;12.94;80.92
72320;SHT30;60269;52.502;16.732;2023-07-20T22:22:13;12.86;81.48
72320;SHT30;60269;52.502;16.732;2023-07-20T22:25:45;12.81;81.98
72320;SHT30;60269;52.502;16.732;2023-07-20T22:29:18;12.70;82.47